createdAt,value
2018-09-17T00:00:05.080Z,62.61
2018-09-17T00:02:33.702Z,63.50
2018-09-17T00:05:02.795Z,63.53
2018-09-17T00:07:31.761Z,63.36
2018-09-17T00:10:00.490Z,62.88
2018-09-17T00:12:29.128Z,62.72
2018-09-17T00:14:58.207Z,63.13
2018-09-17T00:17:27.085Z,63.82
2018-09-17T00:19:55.905Z,64.20
2018-09-17T00:22:24.552Z,64.18
2018-09-17T00:24:53.203Z,63.43
2018-09-17T00:27:22.111Z,63.00
2018-09-17T00:29:51.247Z,62.94
2018-09-17T00:32:20.349Z,62.72
2018-09-17T00:34:49.217Z,62.62
2018-09-17T00:37:18.051Z,63.64
2018-09-17T00:39:47.061Z,64.19
2018-09-17T00:42:16.098Z,64.47
2018-09-17T00:44:45.239Z,64.40
2018-09-17T00:47:14.103Z,64.27
2018-09-17T00:49:43.254Z,63.61
2018-09-17T00:52:12.118Z,64.59
2018-09-17T00:54:40.867Z,64.44
2018-09-17T00:57:09.707Z,64.41
2018-09-17T00:59:38.550Z,64.60
2018-09-17T01:02:07.394Z,64.91
2018-09-17T01:04:36.610Z,64.76
2018-09-17T01:07:05.444Z,64.84
2018-09-17T01:09:39.591Z,64.82
2018-09-17T01:12:08.742Z,65.32
2018-09-17T01:14:37.546Z,64.46
2018-09-17T01:17:06.575Z,64.50
2018-09-17T01:19:35.590Z,65.09
2018-09-17T01:22:04.596Z,65.36
2018-09-17T01:24:33.555Z,65.71
2018-09-17T01:27:02.274Z,65.09
2018-09-17T01:29:31.060Z,65.68
2018-09-17T01:32:00.214Z,66.24
2018-09-17T01:34:29.001Z,66.06
2018-09-17T01:36:57.935Z,67.24
2018-09-17T01:39:27.266Z,68.22
2018-09-17T01:41:56.058Z,68.62
2018-09-17T01:44:25.147Z,69.29
2018-09-17T01:46:54.195Z,68.83
2018-09-17T01:49:23.362Z,68.68
2018-09-17T01:51:52.570Z,68.57
2018-09-17T01:54:21.995Z,69.01
2018-09-17T01:56:50.645Z,68.60
2018-09-17T01:59:19.283Z,67.84
2018-09-17T02:01:48.326Z,67.77
2018-09-17T02:04:17.395Z,66.82
2018-09-17T02:06:46.203Z,67.25
2018-09-17T02:09:15.148Z,66.73
2018-09-17T02:11:44.291Z,66.84
2018-09-17T02:14:13.271Z,66.25
2018-09-17T02:16:42.258Z,66.40
2018-09-17T02:19:11.139Z,66.14
2018-09-17T02:21:40.151Z,67.50
2018-09-17T02:24:09.271Z,67.29
2018-09-17T02:26:37.844Z,66.58
2018-09-17T02:29:06.959Z,66.69
2018-09-17T02:31:35.862Z,67.22
2018-09-17T02:34:04.831Z,67.62
2018-09-17T02:36:33.875Z,67.59
2018-09-17T02:39:02.979Z,67.26
2018-09-17T02:41:31.679Z,67.32
2018-09-17T02:44:00.461Z,66.69
2018-09-17T02:46:29.810Z,66.71
2018-09-17T02:48:58.799Z,66.21
2018-09-17T02:51:27.595Z,65.85
2018-09-17T02:53:56.378Z,66.59
2018-09-17T02:56:25.079Z,66.49
2018-09-17T02:58:53.828Z,66.41
2018-09-17T03:01:22.751Z,67.00
2018-09-17T03:03:51.971Z,66.57
2018-09-17T03:06:21.007Z,65.84
2018-09-17T03:08:49.931Z,66.38
2018-09-17T03:11:18.994Z,66.88
2018-09-17T03:13:48.194Z,67.09
2018-09-17T03:16:17.571Z,67.19
2018-09-17T03:18:57.181Z,66.95
2018-09-17T03:21:26.751Z,67.16
2018-09-17T03:23:55.714Z,67.53
2018-09-17T03:26:24.526Z,67.48
2018-09-17T03:28:53.934Z,67.58
2018-09-17T03:31:22.517Z,67.54
2018-09-17T03:33:51.228Z,67.68
2018-09-17T03:36:20.297Z,67.25
2018-09-17T03:38:49.849Z,67.36
2018-09-17T03:41:20.126Z,68.47
2018-09-17T03:43:50.543Z,69.37
2018-09-17T03:46:19.933Z,69.46
2018-09-17T03:48:49.026Z,69.38
2018-09-17T03:51:18.454Z,69.98
2018-09-17T03:53:47.440Z,70.81
2018-09-17T03:56:16.442Z,70.56
2018-09-17T03:58:45.228Z,70.79
2018-09-17T04:01:13.823Z,70.14
2018-09-17T04:03:42.862Z,70.26
2018-09-17T04:06:11.839Z,69.40
2018-09-17T04:08:40.771Z,69.33
2018-09-17T04:11:09.911Z,68.90
2018-09-17T04:13:38.777Z,68.21
2018-09-17T04:16:07.755Z,68.39
2018-09-17T04:18:36.814Z,68.20
2018-09-17T04:21:05.878Z,67.78
2018-09-17T04:23:36.075Z,67.59
2018-09-17T04:26:06.275Z,67.89
2018-09-17T04:28:35.518Z,67.82
2018-09-17T04:31:04.406Z,67.65
2018-09-17T04:33:39.615Z,68.49
2018-09-17T04:36:09.346Z,67.89
2018-09-17T04:38:38.250Z,66.97
2018-09-17T04:41:07.519Z,66.71
2018-09-17T04:43:36.446Z,66.16
2018-09-17T04:46:05.503Z,65.67
2018-09-17T04:48:34.842Z,65.05
2018-09-17T04:51:04.087Z,64.91
2018-09-17T04:53:32.724Z,64.25
2018-09-17T04:56:01.783Z,63.97
2018-09-17T04:58:30.427Z,63.88
2018-09-17T05:00:59.528Z,63.63
2018-09-17T05:03:28.656Z,63.37
2018-09-17T05:05:57.649Z,62.62
2018-09-17T05:08:26.449Z,62.33
2018-09-17T05:10:55.713Z,62.31
2018-09-17T05:13:24.677Z,61.59
2018-09-17T05:15:53.505Z,61.56
2018-09-17T05:18:22.811Z,61.32
2018-09-17T05:20:51.838Z,60.90
2018-09-17T05:23:20.755Z,60.61
2018-09-17T05:25:49.893Z,60.64
2018-09-17T05:28:18.958Z,60.43
2018-09-17T05:30:47.635Z,60.48
2018-09-17T05:33:16.647Z,60.99
2018-09-17T05:35:45.391Z,60.30
2018-09-17T05:38:14.439Z,60.78
2018-09-17T05:40:43.617Z,60.37
2018-09-17T05:43:12.320Z,61.14
2018-09-17T05:45:41.022Z,59.37
2018-09-17T05:48:10.382Z,59.56
2018-09-17T05:50:39.470Z,60.09
2018-09-17T05:53:08.299Z,59.21
2018-09-17T05:55:37.046Z,58.84
2018-09-17T05:58:05.872Z,58.39
2018-09-17T06:00:34.637Z,58.47
2018-09-17T06:03:03.343Z,57.76
2018-09-17T06:05:32.088Z,56.93
2018-09-17T06:08:00.958Z,56.67
2018-09-17T06:10:30.023Z,55.95
2018-09-17T06:12:58.919Z,55.80
2018-09-17T06:15:27.746Z,55.29
2018-09-17T06:17:56.849Z,54.62
2018-09-17T06:20:25.739Z,53.61
2018-09-17T06:22:54.626Z,53.19
2018-09-17T06:25:23.517Z,53.42
2018-09-17T06:27:52.302Z,53.90
2018-09-17T06:30:21.069Z,53.70
2018-09-17T06:32:50.118Z,53.25
2018-09-17T06:35:18.767Z,53.08
2018-09-17T06:37:47.451Z,53.10
2018-09-17T06:40:16.766Z,51.75
2018-09-17T06:42:45.978Z,53.07
2018-09-17T06:45:14.852Z,53.12
2018-09-17T06:47:44.147Z,52.92
2018-09-17T06:50:12.826Z,53.28
2018-09-17T06:52:41.931Z,52.45
2018-09-17T06:55:10.935Z,52.67
2018-09-17T06:57:39.697Z,52.23
2018-09-17T07:00:08.645Z,51.63
2018-09-17T07:02:37.982Z,51.69
2018-09-17T07:05:06.869Z,50.88
2018-09-17T07:07:35.516Z,49.83
2018-09-17T07:10:04.194Z,50.20
2018-09-17T07:12:33.081Z,50.56
2018-09-17T07:15:01.768Z,50.45
2018-09-17T07:17:30.763Z,49.75
2018-09-17T07:19:59.720Z,49.60
2018-09-17T07:22:28.843Z,49.49
2018-09-17T07:24:57.722Z,49.56
2018-09-17T07:27:26.471Z,49.39
2018-09-17T07:29:55.391Z,49.21
2018-09-17T07:32:24.602Z,49.05
2018-09-17T07:34:53.573Z,48.54
2018-09-17T07:37:22.217Z,48.89
2018-09-17T07:39:51.162Z,48.62
2018-09-17T07:42:19.824Z,48.63
2018-09-17T07:44:48.573Z,48.70
2018-09-17T07:47:17.341Z,47.86
2018-09-17T07:49:46.337Z,48.27
2018-09-17T07:52:15.668Z,48.69
2018-09-17T07:54:44.750Z,48.13
2018-09-17T07:57:13.711Z,48.38
2018-09-17T07:59:43.039Z,49.08
2018-09-17T08:02:11.887Z,48.03
2018-09-17T08:04:40.618Z,48.09
2018-09-17T08:07:10.039Z,46.88
2018-09-17T08:09:38.748Z,46.23
2018-09-17T08:12:07.556Z,46.09
2018-09-17T08:14:36.543Z,46.88
2018-09-17T08:17:06.482Z,46.77
2018-09-17T08:19:35.531Z,47.41
2018-09-17T08:22:04.485Z,46.39
2018-09-17T08:24:33.867Z,45.75
2018-09-17T08:27:02.875Z,48.47
2018-09-17T08:29:31.768Z,47.70
2018-09-17T08:32:01.271Z,46.41
2018-09-17T08:34:30.178Z,47.36
2018-09-17T08:36:58.967Z,46.82
2018-09-17T08:39:27.922Z,47.96
2018-09-17T08:41:56.666Z,47.94
2018-09-17T08:44:25.699Z,46.93
2018-09-17T08:46:54.786Z,46.77
2018-09-17T08:49:23.792Z,47.54
2018-09-17T08:51:52.979Z,48.30
2018-09-17T08:54:21.973Z,47.38
2018-09-17T08:56:56.058Z,46.68
2018-09-17T08:59:30.406Z,46.83
2018-09-17T09:02:00.936Z,45.99
2018-09-17T09:04:34.733Z,45.55
2018-09-17T09:07:11.861Z,45.47
2018-09-17T09:09:40.596Z,45.05
2018-09-17T09:12:14.782Z,45.76
2018-09-17T09:14:43.375Z,45.93
2018-09-17T09:17:12.539Z,45.33
2018-09-17T09:19:41.967Z,44.84
2018-09-17T09:22:11.079Z,44.98
2018-09-17T09:24:40.036Z,43.95
2018-09-17T09:27:09.158Z,44.14
2018-09-17T09:29:38.107Z,44.15
2018-09-17T09:32:06.874Z,43.31
2018-09-17T09:34:36.025Z,42.99
2018-09-17T09:37:04.610Z,43.00
2018-09-17T09:39:33.432Z,41.83
2018-09-17T09:42:02.560Z,40.88
2018-09-17T09:44:31.206Z,39.92
2018-09-17T09:47:00.124Z,39.89
2018-09-17T09:49:29.348Z,40.09
2018-09-17T09:51:58.330Z,40.62
2018-09-17T09:54:27.180Z,40.27
2018-09-17T09:56:56.285Z,39.09
2018-09-17T09:59:25.154Z,39.51
2018-09-17T10:01:54.143Z,39.56
2018-09-17T10:04:23.893Z,39.78
2018-09-17T10:06:53.325Z,37.62
2018-09-17T10:09:27.801Z,37.28
2018-09-17T10:12:01.760Z,37.54
2018-09-17T10:14:35.885Z,36.90
2018-09-17T10:17:09.647Z,36.62
2018-09-17T10:19:43.504Z,35.51
2018-09-17T10:22:12.730Z,34.74
2018-09-17T10:24:41.823Z,34.24
2018-09-17T10:27:10.578Z,33.84
2018-09-17T10:29:39.518Z,33.76
2018-09-17T10:32:08.682Z,33.73
2018-09-17T10:34:37.802Z,32.69
2018-09-17T10:37:07.233Z,32.35
2018-09-17T10:39:36.138Z,32.78
2018-09-17T10:42:05.535Z,32.73
2018-09-17T10:44:34.280Z,33.12
2018-09-17T10:47:03.651Z,32.72
2018-09-17T10:49:32.675Z,32.32
2018-09-17T10:52:01.702Z,32.46
2018-09-17T10:54:30.747Z,34.03
2018-09-17T10:56:59.938Z,32.92
2018-09-17T10:59:28.835Z,33.32
2018-09-17T11:01:57.586Z,33.58
2018-09-17T11:04:26.835Z,34.15
2018-09-17T11:06:55.625Z,32.74
2018-09-17T11:09:24.684Z,33.26
2018-09-17T11:11:53.479Z,32.58
2018-09-17T11:14:22.119Z,34.26
2018-09-17T11:16:51.428Z,32.78
2018-09-17T11:19:20.471Z,31.30
2018-09-17T11:21:49.218Z,30.76
2018-09-17T11:24:18.374Z,31.43
2018-09-17T11:26:47.451Z,31.85
2018-09-17T11:29:16.285Z,31.98
2018-09-17T11:31:45.623Z,31.93
2018-09-17T11:34:14.599Z,32.22
2018-09-17T11:36:43.794Z,31.25
2018-09-17T11:39:13.221Z,29.72
2018-09-17T11:41:42.002Z,28.88
2018-09-17T11:44:10.930Z,28.33
2018-09-17T11:46:40.183Z,27.77
2018-09-17T11:49:08.763Z,28.45
2018-09-17T11:51:37.772Z,26.77
2018-09-17T11:54:07.340Z,27.59
2018-09-17T11:56:37.181Z,28.38
2018-09-17T11:59:05.984Z,26.29
2018-09-17T12:01:40.331Z,27.39
2018-09-17T12:04:11.279Z,26.40
2018-09-17T12:06:45.479Z,26.47
2018-09-17T12:09:14.527Z,26.11
2018-09-17T12:11:43.556Z,25.77
2018-09-17T12:14:12.502Z,25.07
2018-09-17T12:16:41.074Z,25.37
2018-09-17T12:19:09.806Z,24.02
2018-09-17T12:21:39.009Z,24.25
2018-09-17T12:24:07.834Z,24.59
2018-09-17T12:26:36.756Z,23.89
2018-09-17T12:29:05.972Z,23.59
2018-09-17T12:31:35.059Z,23.99
2018-09-17T12:34:03.894Z,22.92
2018-09-17T12:36:33.556Z,22.77
2018-09-17T12:39:02.568Z,23.47
2018-09-17T12:41:31.339Z,22.85
2018-09-17T12:44:00.483Z,22.75
2018-09-17T12:46:29.126Z,22.57
2018-09-17T12:48:57.857Z,21.69
2018-09-17T12:51:26.798Z,24.44
2018-09-17T12:53:56.047Z,23.65
2018-09-17T12:56:25.282Z,23.03
2018-09-17T12:58:54.175Z,22.60
2018-09-17T13:01:23.061Z,22.38
2018-09-17T13:03:51.977Z,22.09
2018-09-17T13:06:21.332Z,20.96
2018-09-17T13:08:50.450Z,21.31
2018-09-17T13:11:19.349Z,20.33
2018-09-17T13:13:48.671Z,21.32
2018-09-17T13:16:17.852Z,21.65
2018-09-17T13:18:46.655Z,22.21
2018-09-17T13:21:15.634Z,22.68
2018-09-17T13:23:44.346Z,21.79
2018-09-17T13:26:12.985Z,21.81
2018-09-17T13:28:42.034Z,22.11
2018-09-17T13:31:12.905Z,21.97
2018-09-17T13:33:41.832Z,21.03
2018-09-17T13:36:10.406Z,21.25
2018-09-17T13:38:39.438Z,22.22
2018-09-17T13:41:08.304Z,21.87
2018-09-17T13:43:37.224Z,20.75
2018-09-17T13:46:06.043Z,20.21
2018-09-17T13:48:35.147Z,19.22
2018-09-17T13:51:03.929Z,20.24
2018-09-17T13:53:32.998Z,20.44
2018-09-17T13:56:02.077Z,19.87
2018-09-17T13:58:31.247Z,19.57
2018-09-17T14:01:00.518Z,21.21
2018-09-17T14:03:29.373Z,20.64
2018-09-17T14:05:58.419Z,19.21
2018-09-17T14:08:27.183Z,19.62
2018-09-17T14:10:56.225Z,19.15
2018-09-17T14:13:25.382Z,19.42
2018-09-17T14:15:59.474Z,19.96
2018-09-17T14:18:28.227Z,20.76
2018-09-17T14:20:56.918Z,20.91
2018-09-17T14:23:25.778Z,19.86
2018-09-17T14:25:54.733Z,20.47
2018-09-17T14:28:23.548Z,20.58
2018-09-17T14:30:52.422Z,21.15
2018-09-17T14:33:26.736Z,21.96
2018-09-17T14:35:55.933Z,22.55
2018-09-17T14:38:25.235Z,22.56
2018-09-17T14:40:54.117Z,22.68
2018-09-17T14:43:23.004Z,23.09
2018-09-17T14:45:51.794Z,24.24
2018-09-17T14:48:20.520Z,23.47
2018-09-17T14:50:49.250Z,22.98
2018-09-17T14:53:18.826Z,22.89
2018-09-17T14:55:47.662Z,22.23
2018-09-17T14:58:16.869Z,23.24
2018-09-17T15:00:45.812Z,23.14
2018-09-17T15:03:14.986Z,22.37
2018-09-17T15:05:44.123Z,23.34
2018-09-17T15:08:13.314Z,24.52
2018-09-17T15:10:42.352Z,24.77
2018-09-17T15:13:11.520Z,24.71
2018-09-17T15:15:47.174Z,23.25
2018-09-17T15:18:16.462Z,24.42
2018-09-17T15:20:45.163Z,23.43
2018-09-17T15:23:14.122Z,23.86
2018-09-17T15:25:43.046Z,23.53
2018-09-17T15:28:12.465Z,23.29
2018-09-17T15:30:41.282Z,22.45
2018-09-17T15:33:10.454Z,21.56
2018-09-17T15:35:39.166Z,21.45
2018-09-17T15:38:08.710Z,21.78
2018-09-17T15:40:37.860Z,21.26
2018-09-17T15:43:06.865Z,21.24
2018-09-17T15:45:35.888Z,22.25
2018-09-17T15:48:05.591Z,21.93
2018-09-17T15:50:34.250Z,22.86
2018-09-17T15:53:03.014Z,22.84
2018-09-17T15:55:31.934Z,23.45
2018-09-17T15:58:01.148Z,23.11
2018-09-17T16:00:30.129Z,23.69
2018-09-17T16:02:59.018Z,23.21
2018-09-17T16:05:28.647Z,23.87
2018-09-17T16:07:57.628Z,24.49
2018-09-17T16:10:26.307Z,24.44
2018-09-17T16:12:55.698Z,25.78
2018-09-17T16:15:24.811Z,26.92
2018-09-17T16:17:53.464Z,27.09
2018-09-17T16:20:22.171Z,27.17
2018-09-17T16:22:51.150Z,28.50
2018-09-17T16:25:20.167Z,28.10
2018-09-17T16:27:48.937Z,29.14
2018-09-17T16:30:17.736Z,30.17
2018-09-17T16:32:46.755Z,30.59
2018-09-17T16:35:15.942Z,31.78
2018-09-17T16:37:44.788Z,31.84
2018-09-17T16:40:13.669Z,32.17
2018-09-17T16:42:43.008Z,33.08
2018-09-17T16:45:11.598Z,33.78
2018-09-17T16:47:40.444Z,34.16
2018-09-17T16:50:09.642Z,34.27
2018-09-17T16:52:38.251Z,35.67
2018-09-17T16:55:07.484Z,35.86
2018-09-17T16:57:36.863Z,37.63
2018-09-17T17:00:05.806Z,38.74
2018-09-17T17:02:34.595Z,39.01
2018-09-17T17:05:03.909Z,39.69
2018-09-17T17:07:32.772Z,39.71
2018-09-17T17:10:01.499Z,39.44
2018-09-17T17:12:30.700Z,40.09
2018-09-17T17:14:59.674Z,41.00
2018-09-17T17:17:28.395Z,40.44
2018-09-17T17:19:57.458Z,41.79
2018-09-17T17:22:26.167Z,42.13
2018-09-17T17:24:55.069Z,41.46
2018-09-17T17:27:24.080Z,41.29
2018-09-17T17:29:53.059Z,42.17
2018-09-17T17:32:21.839Z,42.44
2018-09-17T17:34:50.940Z,42.68
2018-09-17T17:37:19.834Z,42.61
2018-09-17T17:39:49.078Z,42.79
2018-09-17T17:42:18.474Z,43.62
2018-09-17T17:44:47.466Z,43.99
2018-09-17T17:47:16.115Z,44.71
2018-09-17T17:49:44.985Z,44.71
2018-09-17T17:52:13.808Z,44.81
2018-09-17T17:54:42.603Z,45.61
2018-09-17T17:57:11.558Z,45.93
2018-09-17T17:59:40.353Z,45.76
2018-09-17T18:02:09.337Z,45.47
2018-09-17T18:04:38.580Z,45.92
2018-09-17T18:07:07.511Z,45.98
2018-09-17T18:09:36.543Z,46.44
2018-09-17T18:12:05.600Z,46.38
2018-09-17T18:14:34.736Z,46.92
2018-09-17T18:17:03.471Z,47.23
2018-09-17T18:19:32.669Z,47.84
2018-09-17T18:22:01.386Z,47.72
2018-09-17T18:24:30.597Z,47.94
2018-09-17T18:26:59.679Z,48.37
2018-09-17T18:29:28.582Z,48.75
2018-09-17T18:31:57.489Z,48.69
2018-09-17T18:34:26.680Z,48.77
2018-09-17T18:36:55.739Z,48.74
2018-09-17T18:39:24.835Z,49.08
2018-09-17T18:41:53.620Z,49.04
2018-09-17T18:44:22.646Z,48.75
2018-09-17T18:46:51.542Z,48.85
2018-09-17T18:49:20.727Z,49.13
2018-09-17T18:51:49.462Z,49.36
2018-09-17T18:54:18.356Z,49.25
2018-09-17T18:56:47.436Z,48.94
2018-09-17T18:59:16.261Z,48.65
2018-09-17T19:01:45.126Z,48.42
2018-09-17T19:04:14.255Z,47.59
2018-09-17T19:06:43.330Z,48.07
2018-09-17T19:09:12.433Z,48.17
2018-09-17T19:11:41.793Z,48.38
2018-09-17T19:14:15.962Z,48.84
2018-09-17T19:16:51.985Z,48.75
2018-09-17T19:19:21.267Z,48.76
2018-09-17T19:21:55.644Z,49.04
2018-09-17T19:24:24.161Z,49.24
2018-09-17T19:26:52.881Z,49.57
2018-09-17T19:29:22.735Z,49.54
2018-09-17T19:31:51.858Z,49.82
2018-09-17T19:34:20.569Z,50.33
2018-09-17T19:36:49.994Z,50.70
2018-09-17T19:39:24.060Z,50.63
2018-09-17T19:41:53.455Z,51.38
2018-09-17T19:44:22.587Z,51.15
2018-09-17T19:46:51.489Z,51.66
2018-09-17T19:49:20.893Z,51.92
2018-09-17T19:51:55.047Z,52.54
2018-09-17T19:54:24.138Z,52.08
2018-09-17T19:56:52.750Z,52.29
2018-09-17T19:59:26.894Z,52.14
2018-09-17T20:01:55.606Z,52.47
2018-09-17T20:04:30.154Z,52.36
2018-09-17T20:06:58.991Z,52.64
2018-09-17T20:09:27.892Z,53.75
2018-09-17T20:11:56.838Z,53.85
2018-09-17T20:14:25.607Z,54.22
2018-09-17T20:16:54.639Z,54.30
2018-09-17T20:19:23.998Z,54.54
2018-09-17T20:21:52.581Z,54.60
2018-09-17T20:24:21.439Z,54.43
2018-09-17T20:26:50.733Z,54.40
2018-09-17T20:29:19.595Z,54.16
2018-09-17T20:31:48.560Z,54.69
2018-09-17T20:34:17.303Z,55.06
2018-09-17T20:36:46.099Z,55.14
2018-09-17T20:39:15.067Z,55.52
2018-09-17T20:41:44.215Z,56.23
2018-09-17T20:44:13.178Z,56.24
2018-09-17T20:46:42.285Z,56.44
2018-09-17T20:49:11.526Z,56.83
2018-09-17T20:51:40.166Z,56.75
2018-09-17T20:54:08.961Z,57.55
2018-09-17T20:56:38.270Z,58.19
2018-09-17T20:59:07.059Z,58.87
2018-09-17T21:01:35.834Z,58.92
2018-09-17T21:04:05.002Z,58.05
2018-09-17T21:06:33.644Z,59.32
2018-09-17T21:09:02.266Z,59.98
2018-09-17T21:11:30.857Z,61.17
2018-09-17T21:13:59.547Z,60.41
2018-09-17T21:16:28.705Z,60.72
2018-09-17T21:18:58.282Z,60.95
2018-09-17T21:21:27.191Z,61.63
2018-09-17T21:23:56.078Z,62.01
2018-09-17T21:26:25.527Z,62.13
2018-09-17T21:28:54.495Z,62.89
2018-09-17T21:31:24.507Z,62.97
2018-09-17T21:33:53.461Z,64.32
2018-09-17T21:36:22.101Z,64.03
2018-09-17T21:38:50.830Z,63.95
2018-09-17T21:41:19.934Z,64.85
2018-09-17T21:43:48.670Z,64.38
2018-09-17T21:46:17.384Z,64.56
2018-09-17T21:48:46.414Z,65.37
2018-09-17T21:51:15.064Z,64.99
2018-09-17T21:53:43.932Z,65.41
2018-09-17T21:56:13.102Z,66.12
2018-09-17T21:58:42.027Z,65.64
2018-09-17T22:01:10.943Z,66.85
2018-09-17T22:03:40.136Z,67.23
2018-09-17T22:06:09.004Z,66.85
2018-09-17T22:08:37.876Z,66.65
2018-09-17T22:11:06.951Z,68.38
2018-09-17T22:13:35.772Z,68.11
2018-09-17T22:16:04.915Z,68.07
2018-09-17T22:18:34.362Z,67.12
2018-09-17T22:21:03.055Z,67.70
2018-09-17T22:23:31.758Z,67.25
2018-09-17T22:26:00.704Z,68.39
2018-09-17T22:28:29.288Z,67.32
2018-09-17T22:30:58.174Z,67.67
2018-09-17T22:33:27.574Z,67.35
2018-09-17T22:35:56.350Z,67.38
2018-09-17T22:38:25.481Z,68.32
2018-09-17T22:40:54.324Z,67.80
2018-09-17T22:43:23.306Z,68.11
2018-09-17T22:45:52.599Z,69.85
2018-09-17T22:48:21.416Z,70.71
2018-09-17T22:50:50.843Z,70.80
2018-09-17T22:53:19.922Z,70.63
2018-09-17T22:55:49.022Z,71.00
2018-09-17T22:58:17.694Z,71.23
2018-09-17T23:00:46.366Z,71.46
2018-09-17T23:03:15.031Z,71.67
2018-09-17T23:05:43.947Z,72.76
2018-09-17T23:08:13.214Z,71.89
2018-09-17T23:10:42.203Z,71.95
2018-09-17T23:13:11.005Z,72.27
2018-09-17T23:15:40.452Z,71.97
2018-09-17T23:18:09.184Z,72.17
2018-09-17T23:20:37.911Z,71.76
2018-09-17T23:23:07.122Z,71.59
2018-09-17T23:25:35.942Z,71.39
2018-09-17T23:28:04.848Z,70.82
2018-09-17T23:30:34.154Z,71.73
2018-09-17T23:33:02.771Z,70.49
2018-09-17T23:35:31.422Z,70.89
2018-09-17T23:38:00.372Z,70.40
2018-09-17T23:40:29.095Z,70.38
2018-09-17T23:42:58.234Z,70.74
2018-09-17T23:45:27.415Z,71.16
2018-09-17T23:47:56.165Z,70.67
2018-09-17T23:50:24.879Z,70.12
2018-09-17T23:52:53.963Z,70.98
2018-09-17T23:55:22.771Z,71.42
2018-09-17T23:57:51.623Z,71.20
